Time;durP1;ratioP1;P1;durP2;ratioP2;P2;SDS_P1;SDS_P2;PMS_P1;PMS_P2;Temp;Humidity;BMP_temperature;BMP_pressure;BME280_temperature;BME280_humidity;BME280_pressure;Samples;Min_cycle;Max_cycle;Signal;HPM_P1;HPM_P2
2023/06/02 00:01:03;;;;;;;6.93;4.63;;;13.80;99.90;;;;;;5023933;28;20509;-69
2023/06/02 00:03:32;;;;;;;6.40;4.40;;;13.80;99.90;;;;;;5007454;28;20919;-69
2023/06/02 00:06:18;;;;;;;9.30;5.40;;;13.80;99.90;;;;;;5022839;28;20440;-69
2023/06/02 00:08:43;;;;;;;5.23;4.30;;;13.70;99.90;;;;;;5028592;28;21423;-69
2023/06/02 00:11:11;;;;;;;6.33;4.00;;;13.70;99.90;;;;;;5028318;28;20421;-69
2023/06/02 00:13:37;;;;;;;8.10;4.90;;;13.80;99.90;;;;;;5028300;28;20233;-70
2023/06/02 00:16:03;;;;;;;9.77;5.07;;;13.80;99.90;;;;;;5027248;28;20830;-69
2023/06/02 00:18:32;;;;;;;4.73;4.20;;;13.80;99.90;;;;;;5028397;28;20441;-69
2023/06/02 00:21:03;;;;;;;6.10;5.20;;;13.70;99.90;;;;;;5028180;28;20422;-70
2023/06/02 00:23:29;;;;;;;5.20;4.50;;;13.60;99.90;;;;;;5028290;28;20471;-69
2023/06/02 00:25:59;;;;;;;5.87;4.77;;;13.70;99.90;;;;;;5028295;28;20436;-70
2023/06/02 00:28:25;;;;;;;7.23;4.73;;;13.80;99.90;;;;;;5028111;28;20436;-69
2023/06/02 00:30:51;;;;;;;6.00;4.50;;;13.70;99.90;;;;;;5028228;28;20421;-69
2023/06/02 00:33:17;;;;;;;7.07;4.53;;;13.60;99.90;;;;;;5027872;28;20551;-69
2023/06/02 00:35:43;;;;;;;5.77;4.93;;;13.50;99.90;;;;;;5028180;28;20474;-69
2023/06/02 00:38:09;;;;;;;5.47;4.20;;;13.50;99.90;;;;;;5027866;28;20945;-70
2023/06/02 00:40:35;;;;;;;6.53;5.00;;;13.50;99.90;;;;;;5028072;28;20300;-69
2023/06/02 00:43:02;;;;;;;6.60;4.70;;;13.50;99.90;;;;;;5028178;28;20182;-69
2023/06/02 00:45:27;;;;;;;7.47;4.50;;;13.50;99.90;;;;;;5028294;28;20423;-69
2023/06/02 00:47:53;;;;;;;5.60;4.47;;;13.50;99.90;;;;;;5027992;28;20441;-70
2023/06/02 00:50:19;;;;;;;7.17;5.03;;;13.50;99.90;;;;;;5028854;28;20652;-69
2023/06/02 00:52:49;;;;;;;9.03;5.07;;;13.50;99.90;;;;;;5030605;28;20461;-69
2023/06/02 00:55:15;;;;;;;7.60;4.97;;;13.50;99.90;;;;;;5031892;28;20409;-69
2023/06/02 00:57:40;;;;;;;9.63;5.37;;;13.60;99.90;;;;;;5031694;28;20428;-69
2023/06/02 01:00:09;;;;;;;6.43;4.27;;;13.50;99.90;;;;;;5031836;28;20171;-69
2023/06/02 01:02:35;;;;;;;8.03;5.80;;;13.50;99.90;;;;;;5031972;28;20220;-69
2023/06/02 01:05:06;;;;;;;7.53;4.33;;;13.50;99.90;;;;;;5029478;28;20821;-69
2023/06/02 01:07:33;;;;;;;9.10;5.10;;;13.50;99.90;;;;;;5030162;28;20437;-69
2023/06/02 01:10:02;;;;;;;7.50;4.80;;;13.50;99.90;;;;;;5031689;28;20629;-70
2023/06/02 01:12:29;;;;;;;6.50;4.43;;;13.40;99.90;;;;;;5031540;28;20645;-69
2023/06/02 01:14:54;;;;;;;7.20;4.50;;;13.40;99.90;;;;;;5031687;28;20435;-69
2023/06/02 01:17:27;;;;;;;8.97;4.00;;;13.20;99.90;;;;;;5031343;28;20520;-69
2023/06/02 01:19:54;;;;;;;7.20;4.43;;;13.30;99.90;;;;;;5031576;28;20182;-69
2023/06/02 01:22:23;;;;;;;6.93;4.13;;;13.20;99.90;;;;;;5031624;28;20425;-69
2023/06/02 01:24:49;;;;;;;5.27;4.47;;;13.20;99.90;;;;;;5031374;28;20952;-70
2023/06/02 01:27:16;;;;;;;5.73;4.27;;;13.20;99.90;;;;;;5030978;28;20464;-69
2023/06/02 01:29:43;;;;;;;7.93;3.53;;;13.10;99.90;;;;;;5031232;28;20417;-69
2023/06/02 01:32:24;;;;;;;7.03;5.83;;;13.20;99.90;;;;;;5031349;28;20492;-70
2023/06/02 01:34:59;;;;;;;10.87;4.80;;;13.10;99.90;;;;;;5031197;28;20504;-70
2023/06/02 01:37:28;;;;;;;11.30;5.30;;;13.10;99.90;;;;;;5031041;28;20428;-69
2023/06/02 01:39:54;;;;;;;5.10;4.17;;;13.00;99.90;;;;;;5031065;28;20409;-69
2023/06/02 01:42:21;;;;;;;6.00;4.30;;;12.90;99.90;;;;;;5030930;28;20431;-69
2023/06/02 01:44:48;;;;;;;7.17;5.07;;;12.90;99.90;;;;;;5030904;28;20417;-69
2023/06/02 01:47:14;;;;;;;9.50;5.47;;;12.90;99.90;;;;;;5030880;28;20437;-69
2023/06/02 01:49:40;;;;;;;11.83;4.60;;;12.90;99.90;;;;;;5031088;28;21171;-69
2023/06/02 01:52:06;;;;;;;10.40;5.20;;;12.90;99.90;;;;;;5030927;28;20510;-69
2023/06/02 01:54:31;;;;;;;9.10;4.57;;;12.90;99.90;;;;;;5030683;28;20182;-69
2023/06/02 01:56:57;;;;;;;8.83;5.40;;;12.90;99.90;;;;;;5030744;28;20433;-69
2023/06/02 01:59:23;;;;;;;10.70;5.07;;;12.90;99.90;;;;;;5030667;28;20174;-69
2023/06/02 02:01:48;;;;;;;7.83;4.87;;;13.00;99.90;;;;;;5012637;28;20216;-69
2023/06/02 02:04:14;;;;;;;14.50;6.13;;;12.90;99.90;;;;;;5030100;28;20186;-69
2023/06/02 02:06:42;;;;;;;9.30;5.73;;;12.90;99.90;;;;;;5029759;28;20237;-69
2023/06/02 02:09:07;;;;;;;8.77;5.30;;;12.90;99.90;;;;;;5029102;28;20189;-69
2023/06/02 02:11:34;;;;;;;10.40;5.37;;;12.80;99.90;;;;;;5030643;28;20457;-69
2023/06/02 02:14:04;;;;;;;8.50;4.70;;;12.80;99.90;;;;;;5030440;28;20532;-70
2023/06/02 02:16:30;;;;;;;4.70;4.30;;;12.80;99.90;;;;;;5030398;28;20477;-70
2023/06/02 02:18:58;;;;;;;8.93;5.10;;;12.80;99.90;;;;;;5030206;28;20783;-69
2023/06/02 02:21:24;;;;;;;8.73;4.93;;;12.70;99.90;;;;;;5029105;28;20417;-69
2023/06/02 02:23:49;;;;;;;7.50;5.30;;;12.80;99.90;;;;;;5012302;28;20801;-69
2023/06/02 02:26:18;;;;;;;8.90;5.53;;;12.70;99.90;;;;;;5030439;28;20417;-69
2023/06/02 02:28:45;;;;;;;11.93;5.27;;;12.70;99.90;;;;;;5030217;28;20183;-69
2023/06/02 02:31:11;;;;;;;6.00;5.30;;;12.60;99.90;;;;;;5042462;28;20432;-69
2023/06/02 02:33:36;;;;;;;7.97;5.40;;;12.60;99.90;;;;;;5049755;28;20561;-69
2023/06/02 02:36:03;;;;;;;11.70;5.00;;;12.60;99.90;;;;;;5050273;28;20421;-69
2023/06/02 02:38:28;;;;;;;6.50;5.30;;;12.60;99.90;;;;;;5049569;28;20451;-69
2023/06/02 02:40:54;;;;;;;9.80;5.50;;;12.60;99.90;;;;;;5048688;28;20413;-69
2023/06/02 02:43:21;;;;;;;7.00;4.90;;;12.60;99.90;;;;;;5049636;28;20208;-69
2023/06/02 02:45:47;;;;;;;8.03;5.30;;;12.60;99.90;;;;;;5032265;28;20264;-69
2023/06/02 02:48:13;;;;;;;7.20;5.23;;;12.70;99.90;;;;;;5049539;28;21078;-69
2023/06/02 02:50:38;;;;;;;7.03;4.57;;;12.60;99.90;;;;;;5049608;28;20182;-69
2023/06/02 02:53:04;;;;;;;11.20;5.07;;;12.60;99.90;;;;;;5049543;28;20590;-70
2023/06/02 02:55:32;;;;;;;6.47;5.03;;;12.70;99.90;;;;;;5048532;28;20193;-70
2023/06/02 02:58:00;;;;;;;7.63;5.33;;;12.60;99.90;;;;;;5049542;28;20646;-69
2023/06/02 03:00:25;;;;;;;8.40;5.73;;;12.60;99.90;;;;;;5048239;28;20427;-69
2023/06/02 03:02:51;;;;;;;7.10;4.30;;;12.60;99.90;;;;;;5049441;28;20439;-69
2023/06/02 03:05:17;;;;;;;8.23;5.30;;;12.50;99.90;;;;;;5039137;28;20210;-69
2023/06/02 03:07:44;;;;;;;10.63;4.60;;;12.50;99.90;;;;;;5028127;28;20201;-69
2023/06/02 03:10:10;;;;;;;6.70;4.77;;;12.50;99.90;;;;;;5029419;28;20309;-69
2023/06/02 03:12:36;;;;;;;12.70;5.87;;;12.40;99.90;;;;;;5029577;28;20551;-69
2023/06/02 03:15:02;;;;;;;7.00;4.83;;;12.50;99.90;;;;;;5028201;28;20413;-69
2023/06/02 03:17:29;;;;;;;9.63;5.10;;;12.50;99.90;;;;;;5029136;28;20444;-69
2023/06/02 03:19:55;;;;;;;10.20;5.27;;;12.60;99.90;;;;;;5029220;28;20413;-69
2023/06/02 03:22:21;;;;;;;9.90;4.93;;;12.50;99.90;;;;;;5029303;28;20421;-69
2023/06/02 03:24:48;;;;;;;7.87;4.57;;;12.50;99.90;;;;;;5028941;28;20420;-69
2023/06/02 03:27:15;;;;;;;6.10;4.30;;;12.50;99.90;;;;;;5029292;28;21051;-70
2023/06/02 03:29:42;;;;;;;10.53;5.17;;;12.50;99.90;;;;;;5029367;28;20417;-69
2023/06/02 03:32:12;;;;;;;8.50;4.77;;;12.60;99.90;;;;;;5049165;28;20463;-69
2023/06/02 03:34:39;;;;;;;5.53;4.37;;;12.50;99.90;;;;;;5047433;28;20431;-70
2023/06/02 03:37:08;;;;;;;5.80;4.40;;;12.50;99.90;;;;;;5048837;28;20459;-69
2023/06/02 03:39:34;;;;;;;7.63;5.13;;;12.50;99.90;;;;;;5048687;28;20404;-69
2023/06/02 03:42:00;;;;;;;8.67;5.00;;;12.50;99.90;;;;;;5049036;28;20424;-69
2023/06/02 03:44:25;;;;;;;6.97;4.70;;;12.50;99.90;;;;;;5048687;28;20428;-69
2023/06/02 03:46:51;;;;;;;9.93;5.17;;;12.50;99.90;;;;;;5048933;28;20447;-69
2023/06/02 03:49:17;;;;;;;6.80;4.90;;;12.50;99.90;;;;;;5048844;28;20178;-69
2023/06/02 03:51:43;;;;;;;12.40;4.93;;;12.50;99.90;;;;;;5048852;28;20288;-68
2023/06/02 03:54:09;;;;;;;11.10;5.17;;;12.40;99.90;;;;;;5047315;28;20618;-69
2023/06/02 03:56:35;;;;;;;5.80;4.20;;;12.40;99.90;;;;;;5047585;28;20440;-69
2023/06/02 03:59:00;;;;;;;12.93;4.70;;;12.40;99.90;;;;;;5048533;28;20419;-69
2023/06/02 04:01:27;;;;;;;7.97;4.50;;;12.40;99.90;;;;;;5048616;28;20239;-70
2023/06/02 04:03:52;;;;;;;8.43;4.90;;;12.30;99.90;;;;;;5048750;28;20269;-69
2023/06/02 04:06:18;;;;;;;7.17;4.07;;;12.40;99.90;;;;;;5030453;28;20981;-70
2023/06/02 04:08:45;;;;;;;11.00;5.13;;;12.40;99.90;;;;;;5028969;28;20187;-69
2023/06/02 04:11:11;;;;;;;9.87;4.17;;;12.30;99.90;;;;;;5028912;28;20167;-69
2023/06/02 04:13:36;;;;;;;8.63;5.17;;;12.40;99.90;;;;;;5028385;28;20461;-70
2023/06/02 04:16:02;;;;;;;9.83;4.93;;;12.30;99.90;;;;;;5028701;28;20177;-69
2023/06/02 04:18:30;;;;;;;7.20;4.80;;;12.30;99.90;;;;;;5028466;28;20428;-69
2023/06/02 04:20:56;;;;;;;13.00;6.37;;;12.30;99.90;;;;;;5028510;28;20658;-69
2023/06/02 04:23:22;;;;;;;6.63;4.93;;;12.30;99.90;;;;;;5027063;28;20418;-69
2023/06/02 04:25:48;;;;;;;8.70;5.20;;;12.40;99.90;;;;;;5028136;28;20281;-70
2023/06/02 04:28:15;;;;;;;12.03;4.97;;;12.40;99.90;;;;;;5028141;28;20857;-69
2023/06/02 04:30:40;;;;;;;11.40;5.40;;;12.30;99.90;;;;;;5036707;28;21147;-70
2023/06/02 04:33:06;;;;;;;12.57;6.30;;;12.30;99.90;;;;;;5048125;28;20463;-70
2023/06/02 04:35:33;;;;;;;7.60;5.13;;;12.20;99.90;;;;;;5048367;28;20635;-69
2023/06/02 04:37:59;;;;;;;9.87;5.50;;;12.20;99.90;;;;;;5048052;28;20201;-69
2023/06/02 04:40:24;;;;;;;10.00;6.10;;;12.10;99.90;;;;;;5047880;28;20407;-69
2023/06/02 04:42:50;;;;;;;13.00;5.90;;;12.10;99.90;;;;;;5048252;28;20185;-69
2023/06/02 04:45:16;;;;;;;11.10;7.20;;;12.10;99.90;;;;;;5047887;28;20186;-68
2023/06/02 04:47:45;;;;;;;8.40;5.17;;;12.00;99.90;;;;;;5046562;28;20216;-69
2023/06/02 04:50:13;;;;;;;9.73;6.00;;;12.00;99.90;;;;;;5047778;28;20427;-69
2023/06/02 04:52:39;;;;;;;12.63;5.50;;;12.00;99.90;;;;;;5048088;28;20512;-69
2023/06/02 04:55:08;;;;;;;12.63;5.67;;;11.90;99.90;;;;;;5047731;28;20413;-69
2023/06/02 04:57:34;;;;;;;7.20;5.40;;;12.00;99.90;;;;;;5047936;28;20949;-70
2023/06/02 05:00:03;;;;;;;9.37;5.10;;;12.10;99.90;;;;;;5047920;28;20420;-70
2023/06/02 05:02:30;;;;;;;11.40;5.87;;;12.10;99.90;;;;;;5037722;28;20469;-70
2023/06/02 05:04:55;;;;;;;6.93;5.10;;;12.10;99.90;;;;;;5021400;28;20480;-70
2023/06/02 05:07:21;;;;;;;7.83;5.40;;;12.20;99.90;;;;;;5027604;28;20845;-70
2023/06/02 05:09:47;;;;;;;10.50;5.37;;;12.20;99.90;;;;;;5025588;28;20178;-69
2023/06/02 05:12:13;;;;;;;9.33;4.87;;;12.20;99.90;;;;;;5015997;28;20214;-69
2023/06/02 05:14:39;;;;;;;12.37;6.03;;;12.30;99.90;;;;;;5008329;28;20653;-69
2023/06/02 05:17:05;;;;;;;6.20;5.23;;;12.30;99.90;;;;;;5021995;28;20472;-70
2023/06/02 05:19:31;;;;;;;8.83;5.30;;;12.30;99.90;;;;;;5027362;28;20499;-70
2023/06/02 05:21:57;;;;;;;6.53;5.67;;;12.30;99.90;;;;;;5027816;28;20508;-69
2023/06/02 05:24:22;;;;;;;11.47;5.20;;;12.30;99.90;;;;;;5022122;28;20190;-70
2023/06/02 05:26:48;;;;;;;10.77;5.50;;;12.40;99.90;;;;;;5007891;28;20603;-69
2023/06/02 05:29:13;;;;;;;11.30;5.50;;;12.30;99.90;;;;;;5008066;28;20262;-69
2023/06/02 05:31:39;;;;;;;10.60;6.27;;;12.30;99.90;;;;;;5027136;28;20241;-69
2023/06/02 05:34:05;;;;;;;12.73;6.83;;;12.30;99.90;;;;;;5023592;28;20175;-69
2023/06/02 05:36:30;;;;;;;7.33;5.80;;;12.20;99.90;;;;;;5026255;28;20222;-69
2023/06/02 05:38:56;;;;;;;11.80;6.07;;;12.20;99.90;;;;;;5026031;28;20205;-69
2023/06/02 05:41:24;;;;;;;11.00;6.33;;;12.20;99.90;;;;;;5030195;28;20213;-69
2023/06/02 05:43:50;;;;;;;9.70;6.00;;;12.10;99.90;;;;;;5029494;28;20576;-70
2023/06/02 05:46:15;;;;;;;8.63;4.70;;;12.20;99.90;;;;;;5031015;28;20417;-69
2023/06/02 05:48:41;;;;;;;10.10;6.17;;;12.20;99.90;;;;;;5030103;28;20173;-69
2023/06/02 05:51:07;;;;;;;11.90;6.90;;;12.30;99.90;;;;;;5026523;28;20179;-69
2023/06/02 05:53:32;;;;;;;10.50;7.13;;;12.30;99.90;;;;;;5029869;28;20720;-69
2023/06/02 05:55:58;;;;;;;9.47;6.00;;;12.30;99.90;;;;;;5029886;28;20200;-69
2023/06/02 05:58:24;;;;;;;9.80;6.50;;;12.40;99.90;;;;;;5030564;28;20218;-69
2023/06/02 06:00:49;;;;;;;8.47;5.70;;;12.40;99.90;;;;;;5030855;28;20178;-69
2023/06/02 06:03:15;;;;;;;9.10;6.07;;;12.50;99.90;;;;;;5030483;28;20245;-70
2023/06/02 06:05:41;;;;;;;12.23;6.33;;;12.50;99.90;;;;;;5029699;28;20279;-69
2023/06/02 06:08:07;;;;;;;12.83;5.70;;;12.50;99.90;;;;;;5030680;28;20486;-69
2023/06/02 06:10:32;;;;;;;8.87;5.57;;;12.50;99.90;;;;;;5028059;28;20667;-70
2023/06/02 06:12:58;;;;;;;16.47;5.80;;;12.50;99.90;;;;;;5024096;28;20214;-69
2023/06/02 06:15:24;;;;;;;8.33;5.50;;;12.40;99.90;;;;;;5025595;28;20326;-69
2023/06/02 06:17:51;;;;;;;10.30;5.90;;;12.50;99.90;;;;;;5028281;28;20199;-68
2023/06/02 06:20:17;;;;;;;9.30;5.23;;;12.50;99.90;;;;;;5025705;28;20170;-69
2023/06/02 06:22:43;;;;;;;14.80;6.27;;;12.60;99.90;;;;;;5027819;28;20425;-70
2023/06/02 06:25:10;;;;;;;10.00;6.10;;;12.60;99.90;;;;;;5030203;28;20420;-70
2023/06/02 06:27:36;;;;;;;11.63;6.10;;;12.50;99.90;;;;;;5026691;28;20468;-70
2023/06/02 06:30:03;;;;;;;7.93;5.93;;;12.50;99.90;;;;;;5010207;28;20449;-69
2023/06/02 06:32:32;;;;;;;8.60;6.60;;;12.60;99.90;;;;;;5029595;28;20463;-69
2023/06/02 06:34:59;;;;;;;10.43;7.23;;;12.50;99.90;;;;;;5028108;28;20786;-70
2023/06/02 06:37:27;;;;;;;9.97;6.87;;;12.60;99.90;;;;;;5026350;28;20626;-69
2023/06/02 06:39:53;;;;;;;8.93;7.13;;;12.50;99.90;;;;;;5019721;28;20420;-69
2023/06/02 06:42:19;;;;;;;11.53;6.73;;;12.60;99.90;;;;;;5019932;28;20941;-69
2023/06/02 06:44:45;;;;;;;9.90;6.70;;;12.60;99.90;;;;;;5019640;28;20406;-69
2023/06/02 06:47:11;;;;;;;9.07;6.90;;;12.60;99.90;;;;;;5018864;28;20437;-68
2023/06/02 06:49:36;;;;;;;10.57;6.37;;;12.70;99.90;;;;;;5020099;28;20186;-69
2023/06/02 06:52:02;;;;;;;10.83;7.47;;;12.60;99.90;;;;;;5018709;28;20195;-69
2023/06/02 06:54:28;;;;;;;11.90;5.87;;;12.60;99.90;;;;;;5025222;28;20264;-69
2023/06/02 06:56:54;;;;;;;8.77;6.17;;;12.70;99.90;;;;;;5020627;28;20675;-70
2023/06/02 06:59:19;;;;;;;10.17;6.63;;;12.70;99.90;;;;;;5020090;28;20177;-69
2023/06/02 07:01:45;;;;;;;10.30;6.50;;;12.70;99.90;;;;;;5018736;28;20418;-69
2023/06/02 07:04:11;;;;;;;11.70;6.67;;;12.80;99.90;;;;;;5018112;28;20221;-69
2023/06/02 07:06:37;;;;;;;16.67;7.57;;;12.80;99.90;;;;;;5018351;28;20619;-69
2023/06/02 07:09:03;;;;;;;11.87;5.90;;;12.90;99.90;;;;;;5019517;28;20258;-69
2023/06/02 07:11:28;;;;;;;12.10;6.47;;;12.80;99.90;;;;;;5016619;28;20501;-70
2023/06/02 07:13:55;;;;;;;10.90;7.00;;;12.70;99.90;;;;;;5019866;28;20209;-69
2023/06/02 07:16:21;;;;;;;10.83;6.50;;;12.70;99.90;;;;;;5016363;28;20178;-69
2023/06/02 07:18:47;;;;;;;8.97;6.03;;;12.80;99.90;;;;;;5029338;28;20424;-69
2023/06/02 07:21:13;;;;;;;9.00;5.97;;;12.80;99.90;;;;;;5022215;28;20533;-69
2023/06/02 07:23:39;;;;;;;7.97;5.60;;;12.90;99.90;;;;;;5019806;28;21009;-69
2023/06/02 07:26:04;;;;;;;12.13;6.70;;;12.90;99.90;;;;;;5014831;28;20314;-69
2023/06/02 07:28:30;;;;;;;10.27;5.80;;;12.90;99.90;;;;;;5017376;28;20277;-69
2023/06/02 07:30:56;;;;;;;10.77;5.60;;;13.00;99.90;;;;;;5027682;28;20179;-69
2023/06/02 07:33:22;;;;;;;8.57;5.03;;;13.00;99.90;;;;;;5028943;28;20242;-69
2023/06/02 07:35:48;;;;;;;10.43;5.40;;;13.00;99.90;;;;;;5029496;28;20170;-69
2023/06/02 07:38:14;;;;;;;10.87;5.73;;;13.00;99.90;;;;;;5019102;28;20480;-69
2023/06/02 07:40:40;;;;;;;8.90;5.33;;;13.10;99.90;;;;;;5009481;28;20652;-69
2023/06/02 07:43:05;;;;;;;6.93;4.60;;;13.20;99.90;;;;;;5008070;28;20418;-69
2023/06/02 07:45:31;;;;;;;7.37;5.50;;;13.10;99.90;;;;;;5009749;28;20418;-69
2023/06/02 07:47:57;;;;;;;9.43;4.60;;;13.10;99.90;;;;;;5009427;28;20222;-69
2023/06/02 07:50:23;;;;;;;9.50;5.67;;;13.10;99.90;;;;;;5027856;28;20239;-70
2023/06/02 07:52:48;;;;;;;12.07;5.17;;;13.20;99.90;;;;;;5029006;28;20616;-70
2023/06/02 07:55:14;;;;;;;7.47;4.57;;;13.30;99.90;;;;;;5028868;28;20181;-70
2023/06/02 07:57:40;;;;;;;10.50;5.20;;;13.20;99.90;;;;;;5028280;28;20209;-69
2023/06/02 08:00:17;;;;;;;8.87;5.13;;;13.30;99.90;;;;;;5028109;28;20987;-69
2023/06/02 08:02:43;;;;;;;6.47;4.53;;;13.40;99.90;;;;;;5027907;28;20178;-69
2023/06/02 08:05:10;;;;;;;10.33;4.70;;;13.40;99.90;;;;;;5027746;28;20437;-69
2023/06/02 08:07:36;;;;;;;6.30;4.27;;;13.50;99.90;;;;;;5028306;28;20451;-69
2023/06/02 08:10:02;;;;;;;8.87;4.30;;;13.50;99.90;;;;;;5028519;28;20413;-69
2023/06/02 08:12:28;;;;;;;6.90;3.87;;;13.50;99.90;;;;;;5028436;28;20980;-69
2023/06/02 08:14:53;;;;;;;7.70;4.57;;;13.60;99.90;;;;;;5028477;28;20413;-69
2023/06/02 08:17:19;;;;;;;6.10;3.60;;;13.60;99.90;;;;;;5027039;28;20429;-69
2023/06/02 08:19:45;;;;;;;9.70;4.20;;;13.50;99.90;;;;;;5028176;28;20549;-69
2023/06/02 08:22:11;;;;;;;6.33;4.03;;;13.70;99.90;;;;;;5028568;28;20289;-69
2023/06/02 08:24:37;;;;;;;8.43;4.00;;;13.60;99.90;;;;;;5028253;28;20182;-70
2023/06/02 08:27:04;;;;;;;7.47;4.87;;;13.60;99.90;;;;;;5027273;28;20814;-70
2023/06/02 08:29:33;;;;;;;8.37;5.07;;;13.70;99.90;;;;;;5008417;28;20418;-69
2023/06/02 08:31:58;;;;;;;8.10;4.40;;;13.70;99.90;;;;;;5008552;28;20458;-70
2023/06/02 08:34:25;;;;;;;7.17;3.90;;;13.70;99.90;;;;;;5008232;28;20410;-69
2023/06/02 08:36:57;;;;;;;12.20;4.97;;;13.80;99.90;;;;;;5008605;28;20194;-69
2023/06/02 08:39:26;;;;;;;9.70;4.50;;;13.80;99.90;;;;;;5008319;28;20414;-69
2023/06/02 08:41:53;;;;;;;12.33;6.67;;;14.00;99.90;;;;;;5008784;28;20476;-69
2023/06/02 08:44:19;;;;;;;7.40;5.33;;;14.30;99.90;;;;;;5008244;28;20414;-70
2023/06/02 08:46:51;;;;;;;9.07;4.90;;;14.60;99.90;;;;;;5007154;28;20504;-69
2023/06/02 08:49:18;;;;;;;7.23;3.93;;;14.70;99.90;;;;;;5007166;28;20255;-70
2023/06/02 08:51:47;;;;;;;7.33;4.70;;;14.80;99.90;;;;;;5007169;28;20815;-69
2023/06/02 08:54:14;;;;;;;8.70;5.57;;;14.90;99.90;;;;;;5008091;28;20977;-70
2023/06/02 08:56:41;;;;;;;8.97;4.53;;;15.00;99.90;;;;;;5008433;28;20434;-69
2023/06/02 08:59:08;;;;;;;9.97;4.87;;;15.20;99.90;;;;;;5006990;28;20453;-70
2023/06/02 09:01:34;;;;;;;10.90;4.63;;;15.40;99.90;;;;;;5008242;28;20417;-69
2023/06/02 09:04:00;;;;;;;8.63;5.00;;;15.50;99.90;;;;;;5008078;28;20553;-71
2023/06/02 09:06:26;;;;;;;11.63;5.60;;;15.60;99.90;;;;;;5007995;28;20895;-69
2023/06/02 09:08:53;;;;;;;9.17;5.00;;;15.80;99.90;;;;;;5008071;28;20866;-69
2023/06/02 09:11:19;;;;;;;7.40;5.37;;;15.80;99.40;;;;;;5008814;28;20845;-69
2023/06/02 09:13:45;;;;;;;8.03;5.23;;;15.80;99.90;;;;;;5011759;28;20958;-69
2023/06/02 09:16:11;;;;;;;8.07;5.40;;;15.90;99.90;;;;;;5012024;28;20671;-69
2023/06/02 09:18:36;;;;;;;9.83;6.03;;;15.70;99.30;;;;;;5011859;28;20406;-69
2023/06/02 09:21:02;;;;;;;9.20;5.90;;;15.80;99.90;;;;;;5011829;28;20713;-70
2023/06/02 09:23:44;;;;;;;7.10;6.07;;;15.90;99.80;;;;;;5011676;28;20206;-69
2023/06/02 09:26:25;;;;;;;12.87;5.97;;;15.90;99.80;;;;;;5011848;28;20456;-69
2023/06/02 09:29:06;;;;;;;8.03;5.87;;;15.90;99.90;;;;;;5027405;28;20520;-69
2023/06/02 09:31:53;;;;;;;10.77;5.63;;;16.00;99.90;;;;;;5031264;28;20416;-69
2023/06/02 09:34:20;;;;;;;11.80;5.53;;;16.10;99.90;;;;;;5030107;28;20483;-69
2023/06/02 09:36:53;;;;;;;10.27;5.23;;;16.30;99.90;;;;;;5031109;28;20803;-69
2023/06/02 09:39:35;;;;;;;9.63;5.37;;;16.40;99.90;;;;;;5031340;28;20405;-70
2023/06/02 09:42:02;;;;;;;7.43;5.30;;;16.60;99.90;;;;;;5031302;28;20467;-70
2023/06/02 09:44:28;;;;;;;9.23;5.60;;;16.80;99.90;;;;;;5029570;28;20508;-69
2023/06/02 09:46:55;;;;;;;7.53;6.13;;;16.90;99.90;;;;;;5031031;28;20528;-69
2023/06/02 09:49:20;;;;;;;12.60;6.53;;;16.90;99.80;;;;;;5029575;28;20417;-70
2023/06/02 09:51:46;;;;;;;13.80;7.60;;;17.10;99.10;;;;;;5031052;28;20903;-69
2023/06/02 09:54:12;;;;;;;10.77;7.80;;;17.10;99.70;;;;;;5030828;28;20232;-69
2023/06/02 09:56:40;;;;;;;9.83;6.77;;;17.20;99.20;;;;;;5030843;28;20213;-69
2023/06/02 09:59:06;;;;;;;8.33;6.73;;;17.30;99.30;;;;;;5030844;28;20197;-69
2023/06/02 10:01:34;;;;;;;8.33;5.90;;;17.40;99.60;;;;;;5030874;28;20417;-69
2023/06/02 10:04:01;;;;;;;10.93;6.60;;;17.30;98.90;;;;;;5030420;28;20918;-70
2023/06/02 10:06:35;;;;;;;10.80;6.37;;;17.00;99.60;;;;;;5029902;28;20413;-70
2023/06/02 10:09:34;;;;;;;9.07;7.37;;;16.80;99.90;;;;;;5030582;28;20468;-70
2023/06/02 10:12:44;;;;;;;10.47;7.20;;;16.90;99.90;;;;;;5030613;28;20893;-70
2023/06/02 10:15:33;;;;;;;11.07;7.83;;;17.10;99.90;;;;;;5030015;28;20409;-69
2023/06/02 10:18:27;;;;;;;14.40;9.43;;;17.10;99.90;;;;;;5029796;28;20479;-70
2023/06/02 10:21:28;;;;;;;14.37;9.03;;;17.10;99.90;;;;;;5029852;28;20817;-70
2023/06/02 10:24:08;;;;;;;11.37;7.90;;;17.10;99.90;;;;;;5029146;28;20413;-70
2023/06/02 10:27:16;;;;;;;12.10;8.40;;;17.30;99.90;;;;;;5029873;28;20520;-69
2023/06/02 10:29:43;;;;;;;12.10;9.37;;;17.30;99.70;;;;;;5020202;28;20422;-70
2023/06/02 10:32:21;;;;;;;11.30;9.90;;;17.40;99.90;;;;;;5026850;28;20484;-70
2023/06/02 10:34:50;;;;;;;12.80;9.43;;;17.50;99.90;;;;;;5027328;28;20428;-70
2023/06/02 10:37:17;;;;;;;13.43;8.70;;;17.60;99.90;;;;;;5024441;28;20528;-70
2023/06/02 10:39:43;;;;;;;11.80;8.70;;;17.60;99.70;;;;;;5029123;28;20447;-70
2023/06/02 10:42:09;;;;;;;12.10;9.10;;;17.60;99.50;;;;;;5029569;28;20420;-69
2023/06/02 10:44:35;;;;;;;10.90;8.37;;;17.70;99.00;;;;;;5028973;28;20222;-70
2023/06/02 10:47:21;;;;;;;9.77;8.37;;;17.70;99.20;;;;;;5029098;28;20469;-70
2023/06/02 10:49:51;;;;;;;10.50;8.13;;;17.80;99.60;;;;;;5029069;28;20985;-70
2023/06/02 10:52:17;;;;;;;12.90;8.63;;;17.80;99.90;;;;;;5029326;28;20460;-70
2023/06/02 10:54:42;;;;;;;10.07;8.60;;;17.90;99.30;;;;;;5029020;28;21111;-70
2023/06/02 10:57:09;;;;;;;12.40;9.67;;;18.00;99.90;;;;;;5028792;28;20271;-70
2023/06/02 10:59:36;;;;;;;10.23;8.20;;;18.10;99.90;;;;;;5027112;28;20276;-70
2023/06/02 11:02:03;;;;;;;13.10;7.40;;;18.10;99.90;;;;;;5021317;28;20429;-69
2023/06/02 11:04:33;;;;;;;11.03;8.10;;;18.10;99.10;;;;;;5023048;28;20492;-69
2023/06/02 11:07:28;;;;;;;13.60;7.47;;;18.00;99.90;;;;;;5029179;28;20551;-69
2023/06/02 11:09:59;;;;;;;10.60;6.80;;;18.00;98.60;;;;;;5021672;28;20453;-70
2023/06/02 11:12:50;;;;;;;11.53;7.37;;;18.10;99.90;;;;;;5028531;28;20467;-70
2023/06/02 11:15:20;;;;;;;9.57;6.67;;;18.30;99.90;;;;;;5017461;28;20435;-69
2023/06/02 11:17:47;;;;;;;11.10;6.87;;;18.30;99.20;;;;;;5027676;28;20452;-69
2023/06/02 11:20:14;;;;;;;11.97;7.50;;;18.20;99.30;;;;;;5029069;28;20428;-69
2023/06/02 11:22:39;;;;;;;14.33;7.90;;;18.10;98.80;;;;;;5029410;28;20421;-70
2023/06/02 11:25:05;;;;;;;14.90;6.37;;;18.00;99.90;;;;;;5029088;28;20813;-70
2023/06/02 11:27:58;;;;;;;11.43;6.80;;;18.00;99.90;;;;;;5025007;28;20214;-70
2023/06/02 11:30:25;;;;;;;15.73;8.50;;;18.00;99.90;;;;;;5023975;28;20495;-70
2023/06/02 11:32:51;;;;;;;13.90;7.53;;;18.20;99.90;;;;;;5022601;28;20480;-70
2023/06/02 11:35:25;;;;;;;12.57;8.13;;;18.20;99.60;;;;;;5019792;28;20418;-70
2023/06/02 11:38:20;;;;;;;14.63;7.90;;;18.10;99.90;;;;;;5022022;28;20437;-70
2023/06/02 11:40:46;;;;;;;10.70;7.50;;;18.30;99.90;;;;;;5023832;28;20429;-70
2023/06/02 11:43:21;;;;;;;13.50;8.23;;;18.40;98.90;;;;;;5028631;28;20457;-69
2023/06/02 11:45:46;;;;;;;10.67;7.43;;;18.40;99.60;;;;;;5029036;28;20186;-70
2023/06/02 11:48:12;;;;;;;9.40;6.90;;;18.30;99.50;;;;;;5027110;28;20945;-69
2023/06/02 11:50:38;;;;;;;9.30;7.40;;;18.20;99.90;;;;;;5027148;28;20186;-69
2023/06/02 11:53:13;;;;;;;9.97;7.30;;;18.30;99.90;;;;;;5029002;28;20217;-70
2023/06/02 11:55:39;;;;;;;9.10;7.03;;;18.40;99.30;;;;;;5029022;28;20404;-70
2023/06/02 11:58:22;;;;;;;11.30;6.13;;;18.50;99.90;;;;;;5028806;28;20435;-70
2023/06/02 12:00:51;;;;;;;15.97;7.60;;;18.40;99.90;;;;;;5025284;28;20186;-70
2023/06/02 12:03:17;;;;;;;8.60;6.20;;;18.50;99.90;;;;;;5027748;28;20417;-70
2023/06/02 12:05:45;;;;;;;9.00;6.43;;;18.40;99.70;;;;;;5027318;28;20441;-70
2023/06/02 12:08:22;;;;;;;11.07;6.47;;;18.50;99.90;;;;;;5028822;28;20443;-69
2023/06/02 12:10:48;;;;;;;12.03;6.93;;;18.70;99.90;;;;;;5011461;28;20417;-70
2023/06/02 12:13:27;;;;;;;12.60;7.43;;;18.40;99.70;;;;;;5028526;28;21008;-70
2023/06/02 12:15:53;;;;;;;9.37;6.13;;;18.40;99.90;;;;;;5025607;28;20428;-70
2023/06/02 12:18:32;;;;;;;13.10;7.00;;;18.50;99.90;;;;;;5026558;28;20476;-69
2023/06/02 12:20:59;;;;;;;10.73;5.83;;;18.70;99.90;;;;;;5025085;28;20508;-69
2023/06/02 12:23:46;;;;;;;14.17;6.53;;;18.80;99.90;;;;;;5026247;28;20405;-70
2023/06/02 12:26:12;;;;;;;8.77;5.97;;;18.70;99.90;;;;;;5023866;28;20445;-69
2023/06/02 12:28:39;;;;;;;10.63;6.80;;;18.80;99.90;;;;;;5026491;28;20440;-70
2023/06/02 12:31:04;;;;;;;9.20;6.80;;;18.90;99.50;;;;;;5025911;28;20417;-70
2023/06/02 12:33:31;;;;;;;11.60;6.80;;;19.00;99.90;;;;;;5025560;28;20828;-70
2023/06/02 12:35:57;;;;;;;11.37;6.23;;;19.00;99.90;;;;;;5025887;28;20193;-70
2023/06/02 12:38:23;;;;;;;10.73;5.60;;;19.00;99.90;;;;;;5027066;28;20441;-69
2023/06/02 12:40:50;;;;;;;11.20;7.80;;;19.10;99.90;;;;;;5028395;28;20413;-69
2023/06/02 12:43:18;;;;;;;10.40;6.60;;;19.00;99.70;;;;;;5025360;28;20193;-69
2023/06/02 12:45:44;;;;;;;13.80;7.10;;;19.00;99.90;;;;;;5028729;28;20424;-70
2023/06/02 12:48:11;;;;;;;10.67;6.60;;;19.00;99.50;;;;;;5029111;28;20436;-70